createdAt,value
2022-08-25T00:00:23.555Z,95544.05
2022-08-25T00:03:08.646Z,95539.92
2022-08-25T00:05:38.605Z,95538.52
2022-08-25T00:08:08.729Z,95536.38
2022-08-25T00:10:39.377Z,95537.58
2022-08-25T00:13:12.178Z,95534.96
2022-08-25T00:15:44.711Z,95538.79
2022-08-25T00:18:19.902Z,95537.75
2022-08-25T00:20:50.752Z,95534.25
2022-08-25T00:23:20.973Z,95533.78
2022-08-25T00:25:51.243Z,95531.98
2022-08-25T00:28:20.903Z,95533.23
2022-08-25T00:30:50.250Z,95530.52
2022-08-25T00:33:19.800Z,95530.51
2022-08-25T00:35:48.945Z,95527.05
2022-08-25T00:38:17.931Z,95528.16
2022-08-25T00:41:06.095Z,95526.49
2022-08-25T00:43:42.884Z,95522.59
2022-08-25T00:46:14.856Z,95520.36
2022-08-25T00:48:51.431Z,95515.66
2022-08-25T00:51:33.880Z,95512.24
2022-08-25T00:54:04.089Z,95511.63
2022-08-25T00:56:35.284Z,95509.02
2022-08-25T00:59:05.498Z,95506.03
2022-08-25T01:01:34.929Z,95503.63
2022-08-25T01:04:04.455Z,95507.34
2022-08-25T01:06:39.616Z,95505.44
2022-08-25T01:09:09.022Z,95502.64
2022-08-25T01:11:38.538Z,95498.13
2022-08-25T01:14:07.739Z,95494.49
2022-08-25T01:16:39.186Z,95491.08
2022-08-25T01:19:09.812Z,95488.59
2022-08-25T01:21:51.271Z,95490.43
2022-08-25T01:24:45.695Z,95489.72
2022-08-25T01:27:14.776Z,95487.30
2022-08-25T01:29:43.893Z,95482.23
2022-08-25T01:32:15.853Z,95483.91
2022-08-25T01:34:46.518Z,95483.14
2022-08-25T01:37:17.476Z,95482.02
2022-08-25T01:39:47.164Z,95483.30
2022-08-25T01:42:25.463Z,95487.84
2022-08-25T01:44:54.844Z,95480.88
2022-08-25T01:47:24.790Z,95481.20
2022-08-25T01:49:53.413Z,95479.35
2022-08-25T01:52:32.513Z,95478.48
2022-08-25T01:55:02.968Z,95483.66
2022-08-25T01:57:34.286Z,95487.69
2022-08-25T02:00:06.910Z,95486.45
2022-08-25T02:02:57.814Z,95482.91
2022-08-25T02:05:28.379Z,95485.87
2022-08-25T02:08:02.559Z,95483.45
2022-08-25T02:10:34.018Z,95486.03
2022-08-25T02:13:03.178Z,95486.56
2022-08-25T02:15:44.008Z,95488.95
2022-08-25T02:18:13.693Z,95484.19
2022-08-25T02:20:42.758Z,95484.71
2022-08-25T02:23:11.942Z,95482.66
2022-08-25T02:25:42.012Z,95485.26
2022-08-25T02:28:11.803Z,95482.59
2022-08-25T02:30:42.891Z,95484.64
2022-08-25T02:33:12.190Z,95488.86
2022-08-25T02:35:45.394Z,95487.83
2022-08-25T02:38:15.159Z,95488.45
2022-08-25T02:40:45.119Z,95486.59
2022-08-25T02:43:13.972Z,95487.26
2022-08-25T02:45:42.642Z,95484.40
2022-08-25T02:48:12.813Z,95489.38
2022-08-25T02:50:47.419Z,95490.65
2022-08-25T02:53:16.217Z,95490.49
2022-08-25T02:55:45.139Z,95491.38
2022-08-25T02:58:16.014Z,95492.61
2022-08-25T03:00:46.303Z,95487.64
2022-08-25T03:03:16.818Z,95489.44
2022-08-25T03:05:47.480Z,95496.86
2022-08-25T03:08:17.219Z,95494.82
2022-08-25T03:10:46.411Z,95494.11
2022-08-25T03:13:18.414Z,95495.84
2022-08-25T03:15:47.764Z,95501.96
2022-08-25T03:18:18.194Z,95498.06
2022-08-25T03:20:47.294Z,95496.70
2022-08-25T03:23:16.709Z,95499.88
2022-08-25T03:26:04.181Z,95500.00
2022-08-25T03:28:33.543Z,95501.13
2022-08-25T03:31:02.463Z,95500.48
2022-08-25T03:33:32.053Z,95500.36
2022-08-25T03:36:00.896Z,95502.95
2022-08-25T03:38:30.182Z,95503.80
2022-08-25T03:40:59.268Z,95506.09
2022-08-25T03:43:28.247Z,95505.36
2022-08-25T03:45:59.938Z,95507.96
2022-08-25T03:48:28.740Z,95514.98
2022-08-25T03:50:59.037Z,95513.62
2022-08-25T03:53:29.004Z,95510.46
2022-08-25T03:55:59.807Z,95513.19
2022-08-25T03:58:28.786Z,95512.06
2022-08-25T04:01:00.633Z,95510.93
2022-08-25T04:03:29.480Z,95506.13
2022-08-25T04:06:03.848Z,95503.19
2022-08-25T04:08:32.608Z,95500.59
2022-08-25T04:11:17.804Z,95500.48
2022-08-25T04:13:52.337Z,95501.52
2022-08-25T04:16:24.855Z,95498.33
2022-08-25T04:18:57.109Z,95495.91
2022-08-25T04:21:27.987Z,95496.90
2022-08-25T04:23:57.730Z,95500.73
2022-08-25T04:26:34.089Z,95497.98
2022-08-25T04:29:04.013Z,95501.73
2022-08-25T04:31:34.527Z,95504.80
2022-08-25T04:34:04.879Z,95499.71
2022-08-25T04:36:57.183Z,95495.25
2022-08-25T04:39:26.744Z,95488.54
2022-08-25T04:41:56.546Z,95489.09
2022-08-25T04:44:25.964Z,95491.10
2022-08-25T04:46:56.385Z,95489.30
2022-08-25T04:49:26.208Z,95495.33
2022-08-25T04:51:57.119Z,95498.23
2022-08-25T04:54:26.563Z,95497.02
2022-08-25T04:56:59.511Z,95496.95
2022-08-25T04:59:30.017Z,95495.92
2022-08-25T05:02:08.897Z,95494.06
2022-08-25T05:04:40.821Z,95492.41
2022-08-25T05:07:10.988Z,95498.05
2022-08-25T05:09:42.255Z,95499.61
2022-08-25T05:12:14.247Z,95499.91
2022-08-25T05:14:46.004Z,95500.23
2022-08-25T05:17:18.278Z,95500.14
2022-08-25T05:19:48.127Z,95500.86
2022-08-25T05:22:17.304Z,95503.36
2022-08-25T05:24:48.807Z,95501.23
2022-08-25T05:27:17.900Z,95501.41
2022-08-25T05:29:48.755Z,95492.83
2022-08-25T05:32:19.139Z,95496.77
2022-08-25T05:34:52.900Z,95498.61
2022-08-25T05:37:29.957Z,95492.68
2022-08-25T05:40:06.101Z,95487.39
2022-08-25T05:42:36.529Z,95486.20
2022-08-25T05:45:15.814Z,95487.45
2022-08-25T05:47:55.492Z,95488.80
2022-08-25T05:50:34.907Z,95488.88
2022-08-25T05:53:07.136Z,95489.29
2022-08-25T05:55:37.539Z,95487.44
2022-08-25T05:58:10.818Z,95487.30
2022-08-25T06:00:46.656Z,95484.36
2022-08-25T06:03:19.467Z,95477.63
2022-08-25T06:05:51.599Z,95472.81
2022-08-25T06:08:22.226Z,95470.64
2022-08-25T06:10:54.837Z,95467.55
2022-08-25T06:13:30.507Z,95468.02
2022-08-25T06:16:05.901Z,95469.63
2022-08-25T06:18:38.019Z,95467.00
2022-08-25T06:21:14.370Z,95468.14
2022-08-25T06:23:44.972Z,95475.14
2022-08-25T06:26:21.132Z,95469.75
2022-08-25T06:28:56.302Z,95471.73
2022-08-25T06:31:35.615Z,95475.02
2022-08-25T06:34:21.946Z,95473.02
2022-08-25T06:36:57.265Z,95473.10
2022-08-25T10:38:57.644Z,95383.73
2022-08-25T10:42:07.205Z,95371.40
2022-08-25T10:45:08.067Z,95367.48
2022-08-25T10:48:09.922Z,95364.51
2022-08-25T10:50:55.326Z,95362.98
2022-08-25T10:53:56.761Z,95356.73
2022-08-25T10:56:53.202Z,95351.64
2022-08-25T10:59:29.821Z,95342.77
2022-08-25T11:02:30.443Z,95342.08
2022-08-25T11:05:09.673Z,95348.27
2022-08-25T11:07:47.758Z,95350.27
2022-08-25T11:10:29.345Z,95351.90
2022-08-25T11:13:04.472Z,95344.42
2022-08-25T11:16:00.225Z,95345.42
2022-08-25T11:18:34.083Z,95342.68
2022-08-25T11:21:18.859Z,95340.77
2022-08-25T11:24:13.948Z,95346.30
2022-08-25T11:26:52.424Z,95340.23
2022-08-25T11:29:26.269Z,95338.19
2022-08-25T11:32:04.414Z,95336.42
2022-08-25T11:34:43.733Z,95325.13
2022-08-25T11:37:29.206Z,95323.20
2022-08-25T11:40:19.652Z,95328.72
2022-08-25T11:43:15.028Z,95325.34
2022-08-25T11:46:10.016Z,95321.33
2022-08-25T11:49:07.011Z,95320.75
2022-08-25T11:51:52.604Z,95314.66
2022-08-25T11:54:36.031Z,95310.13
2022-08-25T11:57:15.782Z,95307.23
2022-08-25T11:59:56.684Z,95310.59
2022-08-25T12:02:42.561Z,95307.55
2022-08-25T12:05:21.543Z,95309.35
2022-08-25T12:08:17.458Z,95308.52
2022-08-25T12:10:59.293Z,95307.42
2022-08-25T12:13:46.709Z,95303.77
2022-08-25T12:16:41.637Z,95304.52
2022-08-25T12:19:38.421Z,95303.52
2022-08-25T12:22:13.957Z,95301.45
2022-08-25T12:25:11.847Z,95301.98
2022-08-25T12:28:09.082Z,95304.20
2022-08-25T12:31:02.919Z,95309.47
2022-08-25T12:34:06.036Z,95308.41
2022-08-25T12:36:39.315Z,95306.81
2022-08-25T12:39:25.647Z,95308.90
2022-08-25T12:42:03.506Z,95308.95
2022-08-25T12:44:49.571Z,95308.70
2022-08-25T12:47:34.371Z,95305.63
2022-08-25T12:50:44.868Z,95304.02
2022-08-25T12:53:43.170Z,95301.75
2022-08-25T12:56:57.412Z,95299.36
2022-08-25T12:59:40.279Z,95295.52
2022-08-25T13:02:38.312Z,95292.24
2022-08-25T13:05:42.315Z,95294.54
2022-08-25T13:08:56.265Z,95289.05
2022-08-25T13:11:35.418Z,95284.14
2022-08-25T13:17:05.529Z,95284.97
2022-08-25T13:19:36.693Z,95286.95
2022-08-25T13:22:16.923Z,95283.67
2022-08-25T13:24:52.792Z,95286.55
2022-08-25T13:27:32.329Z,95284.84
2022-08-25T13:30:05.753Z,95282.67
2022-08-25T13:32:39.669Z,95288.23
2022-08-25T13:35:34.722Z,95288.71
2022-08-25T13:38:16.455Z,95285.50
2022-08-25T13:40:50.254Z,95286.27
2022-08-25T13:43:27.404Z,95281.01
2022-08-25T13:45:58.553Z,95279.45
2022-08-25T13:48:49.634Z,95279.30
2022-08-25T13:51:31.286Z,95279.31
2022-08-25T13:54:06.645Z,95273.91
2022-08-25T13:56:41.452Z,95271.32
2022-08-25T13:59:40.330Z,95269.00
2022-08-25T14:02:15.260Z,95273.42
2022-08-25T14:04:54.631Z,95271.61
2022-08-25T14:07:23.487Z,95273.27
2022-08-25T14:09:54.412Z,95266.57
2022-08-25T14:12:44.915Z,95267.78
2022-08-25T14:15:21.732Z,95266.25
2022-08-25T14:18:14.515Z,95264.02
2022-08-25T14:20:48.013Z,95267.02
2022-08-25T14:23:31.218Z,95257.42
2022-08-25T14:26:06.412Z,95252.76
2022-08-25T14:28:39.609Z,95250.45
2022-08-25T14:31:18.307Z,95250.99
2022-08-25T14:34:02.209Z,95247.30
2022-08-25T14:36:34.912Z,95242.62
2022-08-25T14:39:08.910Z,95240.59
2022-08-25T14:41:41.588Z,95237.78
2022-08-25T14:44:11.871Z,95242.55
2022-08-25T14:46:56.207Z,95245.30
2022-08-25T14:49:34.445Z,95245.05
2022-08-25T14:52:22.677Z,95243.95
2022-08-25T14:54:53.789Z,95251.08
2022-08-25T14:57:29.582Z,95250.80
2022-08-25T15:00:04.981Z,95253.27
2022-08-25T15:02:40.227Z,95252.27
2022-08-25T15:05:23.862Z,95250.38
2022-08-25T15:08:15.652Z,95250.98
2022-08-25T15:10:48.039Z,95248.50
2022-08-25T15:13:18.036Z,95249.50
2022-08-25T15:15:53.270Z,95249.61
2022-08-25T15:18:27.265Z,95246.52
2022-08-25T15:21:03.651Z,95245.14
2022-08-25T15:23:37.134Z,95241.05
2022-08-25T15:26:19.866Z,95240.05
2022-08-25T15:28:54.796Z,95239.04
2022-08-25T15:31:27.230Z,95240.45
2022-08-25T15:33:58.864Z,95237.77
2022-08-25T15:36:30.777Z,95234.39
2022-08-25T15:39:00.289Z,95235.33
2022-08-25T15:41:30.215Z,95232.96
2022-08-25T15:44:01.204Z,95234.16
2022-08-25T15:46:34.364Z,95235.57
2022-08-25T15:49:10.202Z,95239.23
2022-08-25T15:51:42.599Z,95238.39
2022-08-25T15:54:19.077Z,95237.48
2022-08-25T15:56:48.443Z,95238.92
2022-08-25T15:59:22.540Z,95235.54
2022-08-25T16:02:01.359Z,95233.63
2022-08-25T16:04:32.017Z,95233.73
2022-08-25T16:07:03.947Z,95230.30
2022-08-25T16:09:37.656Z,95230.84
2022-08-25T16:12:12.110Z,95236.94
2022-08-25T16:14:47.712Z,95235.42
2022-08-25T16:17:21.930Z,95237.63
2022-08-25T16:19:53.625Z,95241.73
2022-08-25T16:22:24.075Z,95238.14
2022-08-25T16:24:56.348Z,95239.34
2022-08-25T16:27:38.742Z,95237.88
2022-08-25T16:30:14.991Z,95235.17
2022-08-25T16:32:48.156Z,95240.02
2022-08-25T16:35:18.382Z,95238.05
2022-08-25T16:37:52.612Z,95240.20
2022-08-25T16:40:31.440Z,95238.50
2022-08-25T16:43:07.435Z,95241.81
2022-08-25T16:45:43.039Z,95243.89
2022-08-25T16:48:20.194Z,95240.34
2022-08-25T16:50:54.151Z,95239.23
2022-08-25T16:53:48.741Z,95236.98
2022-08-25T16:56:25.294Z,95234.64
2022-08-25T16:59:04.600Z,95236.52
2022-08-25T17:01:42.025Z,95234.85
2022-08-25T17:04:13.903Z,95232.37
2022-08-25T17:06:51.760Z,95229.23
2022-08-25T17:09:25.778Z,95232.39
2022-08-25T17:11:57.485Z,95233.81
2022-08-25T17:14:27.920Z,95237.00
2022-08-25T17:17:00.257Z,95236.23
2022-08-25T17:19:38.202Z,95238.92
2022-08-25T17:22:14.650Z,95243.35
2022-08-25T17:24:44.389Z,95245.16
2022-08-25T17:27:24.403Z,95247.16
2022-08-25T17:29:56.082Z,95248.11
2022-08-25T17:32:34.288Z,95252.14
2022-08-25T17:35:13.582Z,95254.04
2022-08-25T17:37:45.299Z,95252.44
2022-08-25T17:40:22.311Z,95254.79
2022-08-25T17:42:56.332Z,95257.73
2022-08-25T17:45:26.710Z,95259.58
2022-08-25T17:47:56.181Z,95264.03
2022-08-25T17:50:29.763Z,95265.86
2022-08-25T17:53:02.244Z,95265.09
2022-08-25T17:55:38.092Z,95266.16
2022-08-25T17:58:08.624Z,95264.23
2022-08-25T18:00:43.906Z,95261.94
2022-08-25T18:03:16.486Z,95265.61
2022-08-25T18:05:50.709Z,95269.29
2022-08-25T18:08:34.855Z,95275.61
2022-08-25T18:11:08.565Z,95278.03
2022-08-25T18:13:41.200Z,95285.59
2022-08-25T18:16:13.837Z,95291.30
2022-08-25T18:18:43.128Z,95289.48
2022-08-25T18:21:20.911Z,95288.00
2022-08-25T18:23:57.160Z,95291.50
2022-08-25T18:26:28.002Z,95293.98
2022-08-25T18:28:57.716Z,95298.09
2022-08-25T18:31:29.490Z,95300.70
2022-08-25T18:34:00.319Z,95298.46
2022-08-25T18:36:30.853Z,95300.45
2022-08-25T18:39:22.365Z,95297.61
2022-08-25T18:41:54.466Z,95302.41
2022-08-25T18:44:30.425Z,95301.41
2022-08-25T18:47:07.333Z,95303.45
2022-08-25T18:49:39.898Z,95306.53
2022-08-25T18:52:10.667Z,95312.73
2022-08-25T18:54:41.868Z,95311.14
2022-08-25T18:57:14.604Z,95313.78
2022-08-25T18:59:49.795Z,95308.56
2022-08-25T19:02:23.487Z,95309.29
2022-08-25T19:04:54.785Z,95310.52
2022-08-25T19:07:26.914Z,95309.84
2022-08-25T19:09:56.689Z,95305.70
2022-08-25T19:12:27.840Z,95306.10
2022-08-25T19:14:59.407Z,95299.08
2022-08-25T19:17:37.452Z,95305.67
2022-08-25T19:20:11.242Z,95302.80
2022-08-25T19:22:42.305Z,95302.33
2022-08-25T19:25:15.116Z,95301.39
2022-08-25T19:27:51.502Z,95303.40
2022-08-25T19:30:22.665Z,95304.43
2022-08-25T19:32:54.123Z,95301.41
2022-08-25T19:35:32.227Z,95305.92
2022-08-25T19:38:33.203Z,95305.73
2022-08-25T19:41:01.710Z,95304.52
2022-08-25T19:43:33.891Z,95304.12
2022-08-25T19:46:08.318Z,95307.86
2022-08-25T19:48:38.432Z,95305.73
2022-08-25T19:51:11.929Z,95311.05
2022-08-25T19:53:40.405Z,95303.30
2022-08-25T19:56:10.914Z,95306.66
2022-08-25T19:58:42.262Z,95310.27
2022-08-25T20:01:18.104Z,95309.19
2022-08-25T20:03:50.761Z,95305.04
2022-08-25T20:06:27.716Z,95305.27
2022-08-25T20:09:04.441Z,95303.25
2022-08-25T20:11:34.395Z,95304.00
2022-08-25T20:14:04.666Z,95303.17
2022-08-25T20:16:34.248Z,95299.34
2022-08-25T20:19:09.296Z,95292.88
2022-08-25T20:21:41.380Z,95299.96
2022-08-25T20:24:30.421Z,95290.91
2022-08-25T20:27:01.286Z,95302.34
2022-08-25T20:29:31.461Z,95298.60
2022-08-25T20:32:03.491Z,95303.31
2022-08-25T20:34:36.591Z,95298.23
2022-08-25T20:37:06.951Z,95303.33
2022-08-25T20:39:39.471Z,95299.17
2022-08-25T20:42:10.431Z,95303.53
2022-08-25T20:44:42.129Z,95302.36
2022-08-25T20:47:19.405Z,95296.98
2022-08-25T20:49:49.201Z,95291.73
2022-08-25T20:52:22.306Z,95297.50
2022-08-25T20:54:52.562Z,95297.56
2022-08-25T20:57:26.512Z,95298.64
2022-08-25T20:59:58.382Z,95301.52
2022-08-25T21:02:30.193Z,95297.96
2022-08-25T21:05:01.398Z,95302.85
2022-08-25T21:07:35.728Z,95306.44
2022-08-25T21:10:10.685Z,95302.38
2022-08-25T21:12:45.374Z,95303.05
2022-08-25T21:15:18.154Z,95309.10
2022-08-25T21:17:56.538Z,95306.34
2022-08-25T21:20:26.526Z,95307.06
2022-08-25T21:22:58.267Z,95311.58
2022-08-25T21:25:28.201Z,95309.13
2022-08-25T21:27:58.492Z,95303.90
2022-08-25T21:30:28.503Z,95301.60
2022-08-25T21:32:57.721Z,95310.05
2022-08-25T21:35:30.387Z,95308.19
2022-08-25T21:38:01.488Z,95308.72
2022-08-25T21:40:36.945Z,95314.60
2022-08-25T21:43:07.530Z,95307.95
2022-08-25T21:45:46.414Z,95299.42
2022-08-25T21:48:17.494Z,95300.71
2022-08-25T21:50:52.493Z,95304.24
2022-08-25T21:53:21.905Z,95299.55
2022-08-25T21:55:50.736Z,95292.23
2022-08-25T21:58:21.107Z,95296.07
2022-08-25T22:00:50.815Z,95293.80
2022-08-25T22:03:22.410Z,95285.15
2022-08-25T22:05:52.381Z,95291.66
2022-08-25T22:08:20.776Z,95292.95
2022-08-25T22:10:50.507Z,95286.85
2022-08-25T22:13:20.473Z,95292.48
2022-08-25T22:15:52.191Z,95290.11
2022-08-25T22:18:23.104Z,95287.36
2022-08-25T22:20:52.731Z,95288.16
2022-08-25T22:23:23.309Z,95291.28
2022-08-25T22:25:58.615Z,95286.23
2022-08-25T22:28:29.253Z,95291.05
2022-08-25T22:31:02.957Z,95288.63
2022-08-25T22:33:32.602Z,95288.16
2022-08-25T22:36:01.724Z,95286.88
2022-08-25T22:38:32.636Z,95279.31
2022-08-25T22:41:03.016Z,95281.31
2022-08-25T22:43:32.456Z,95281.70
2022-08-25T22:46:04.073Z,95278.59
2022-08-25T22:48:35.290Z,95279.53
2022-08-25T22:51:12.941Z,95278.26
2022-08-25T22:53:45.677Z,95276.92
2022-08-25T22:56:17.710Z,95276.28
2022-08-25T22:58:51.448Z,95271.92
2022-08-25T23:01:25.064Z,95272.70
2022-08-25T23:04:08.636Z,95270.02
2022-08-25T23:06:43.383Z,95269.57
2022-08-25T23:09:12.583Z,95267.46
2022-08-25T23:11:43.776Z,95266.10
2022-08-25T23:14:16.952Z,95263.38
2022-08-25T23:16:45.928Z,95262.94
2022-08-25T23:19:17.386Z,95261.09
2022-08-25T23:22:05.205Z,95262.57
2022-08-25T23:24:34.597Z,95253.69
2022-08-25T23:27:05.324Z,95256.27
2022-08-25T23:29:40.868Z,95257.89
2022-08-25T23:32:14.341Z,95252.72
2022-08-25T23:34:46.510Z,95253.92
2022-08-25T23:37:18.420Z,95251.13
2022-08-25T23:39:49.830Z,95254.70
2022-08-25T23:42:21.017Z,95249.92
2022-08-25T23:44:51.701Z,95252.60
2022-08-25T23:47:21.679Z,95246.58
2022-08-25T23:49:52.083Z,95246.24
2022-08-25T23:52:21.269Z,95245.45
2022-08-25T23:54:50.638Z,95243.02
2022-08-25T23:57:19.921Z,95245.94
2022-08-25T23:59:49.456Z,95247.91
